Time;durP1;ratioP1;P1;durP2;ratioP2;P2;SDS_P1;SDS_P2;PMS_P1;PMS_P2;Temp;Humidity;BMP_temperature;BMP_pressure;BME280_temperature;BME280_humidity;BME280_pressure;Samples;Min_cycle;Max_cycle;Signal;HPM_P1;HPM_P2
2021/12/12 00:06:56;;;;;;;76.40;24.65;;;;;;;-2.66;100.00;101015.98;713748;1199;114472;-73
2021/12/12 00:22:04;;;;;;;87.53;24.43;;;;;;;-2.66;100.00;101021.95;713811;1182;114127;-73
2021/12/12 00:37:08;;;;;;;90.20;24.70;;;;;;;-2.70;100.00;101039.14;713732;1203;114650;-73
2021/12/12 00:52:13;;;;;;;130.60;39.08;;;;;;;-2.59;100.00;101038.91;714010;1200;115663;-73
2021/12/12 01:07:21;;;;;;;97.27;28.97;;;;;;;-2.57;100.00;101054.31;713987;1190;114585;-73
2021/12/12 01:22:30;;;;;;;84.47;24.53;;;;;;;-2.63;100.00;101064.71;713837;1205;115614;-74
2021/12/12 01:37:38;;;;;;;87.03;27.13;;;;;;;-2.68;100.00;101069.93;714127;1176;114427;-74
2021/12/12 01:52:41;;;;;;;94.85;27.98;;;;;;;-2.70;100.00;101057.13;714644;1175;114592;-73
2021/12/12 02:07:49;;;;;;;101.60;31.67;;;;;;;-2.71;100.00;101055.42;714473;1205;115894;-74
2021/12/12 02:38:00;;;;;;;101.33;30.50;;;;;;;-2.52;100.00;101043.05;714500;1200;115791;-72
2021/12/12 02:53:20;;;;;;;95.98;31.60;;;;;;;-2.65;100.00;101031.35;715095;1202;115625;-74
2021/12/12 03:08:23;;;;;;;119.98;37.23;;;;;;;-2.83;100.00;101059.98;715171;1199;114827;-73
2021/12/12 03:23:33;;;;;;;109.10;35.38;;;;;;;-2.99;100.00;101065.41;714458;1200;115292;-73
2021/12/12 03:38:38;;;;;;;115.15;34.33;;;;;;;-2.88;100.00;101094.31;714001;1200;116100;-73
2021/12/12 03:53:41;;;;;;;105.30;34.75;;;;;;;-3.08;100.00;101091.27;713835;1200;115046;-73
2021/12/12 04:08:46;;;;;;;103.07;34.80;;;;;;;-3.04;100.00;101098.86;713873;1199;115449;-73
2021/12/12 04:23:50;;;;;;;112.78;33.68;;;;;;;-2.81;100.00;101094.17;713770;1199;115784;-73
2021/12/12 04:39:04;;;;;;;113.17;35.90;;;;;;;-3.01;100.00;101108.23;713451;1200;114379;-73
2021/12/12 04:54:32;;;;;;;113.85;32.88;;;;;;;-2.98;100.00;101108.20;713875;1200;116127;-73
2021/12/12 05:09:39;;;;;;;123.50;36.00;;;;;;;-3.10;100.00;101118.67;713694;1202;114078;-73
2021/12/12 05:24:44;;;;;;;119.70;33.48;;;;;;;-3.02;100.00;101134.81;713732;1175;114624;-73
2021/12/12 05:39:46;;;;;;;;;;;;;;;-3.13;100.00;101152.95;713877;1207;115928;-73
2021/12/12 05:54:51;;;;;;;114.37;34.50;;;;;;;-3.31;100.00;101166.95;714407;1200;101315;-73
2021/12/12 06:09:53;;;;;;;137.20;37.30;;;;;;;-3.20;100.00;101159.07;715153;1176;114711;-73
2021/12/12 06:24:56;;;;;;;154.73;42.48;;;;;;;-3.11;100.00;101176.05;714658;1185;115447;-71
2021/12/12 06:39:59;;;;;;;136.60;38.63;;;;;;;-2.97;100.00;101186.93;714022;1200;114862;-74
2021/12/12 06:55:03;;;;;;;179.48;50.75;;;;;;;-2.85;100.00;101207.25;713984;1200;114779;-74
2021/12/12 07:10:07;;;;;;;158.03;44.87;;;;;;;-2.94;100.00;101215.12;714236;1206;115390;-74
2021/12/12 07:25:10;;;;;;;154.60;47.37;;;;;;;-2.93;100.00;101219.39;714360;1200;116087;-75
2021/12/12 07:40:12;;;;;;;145.70;42.95;;;;;;;-2.73;100.00;101241.28;714193;1202;115363;-74
2021/12/12 07:55:15;;;;;;;166.80;55.80;;;;;;;-2.94;100.00;101250.20;714003;1205;116197;-75
2021/12/12 08:10:18;;;;;;;187.15;64.45;;;;;;;-2.84;100.00;101254.31;714341;1200;114767;-76
2021/12/12 08:25:21;;;;;;;157.87;58.73;;;;;;;-3.09;99.71;101266.70;714909;1203;114501;-76
2021/12/12 08:40:27;;;;;;;173.50;54.40;;;;;;;-2.79;100.00;101256.82;715458;1202;115037;-76
2021/12/12 08:55:36;;;;;;;160.98;52.18;;;;;;;-2.59;100.00;101265.01;715162;1205;114352;-76
2021/12/12 09:10:50;;;;;;;148.75;51.55;;;;;;;-2.40;100.00;101260.41;714987;1203;114402;-76
2021/12/12 09:25:59;;;;;;;344.15;118.45;;;;;;;-2.10;100.00;101252.13;715277;1193;115138;-76
2021/12/12 09:41:23;;;;;;;361.45;123.25;;;;;;;-1.89;100.00;101238.84;715358;1177;115224;-75
2021/12/12 09:56:33;;;;;;;161.85;54.58;;;;;;;-1.71;100.00;101239.33;715212;1205;116148;-74
2021/12/12 10:11:40;;;;;;;152.00;52.83;;;;;;;-1.69;100.00;101237.55;714997;1203;114612;-74
2021/12/12 10:26:53;;;;;;;172.03;59.28;;;;;;;-1.43;100.00;101254.16;714970;1178;114573;-74
2021/12/12 10:41:59;;;;;;;150.65;54.73;;;;;;;-1.39;100.00;101251.45;715040;1200;116371;-73
2021/12/12 10:57:14;;;;;;;283.28;105.05;;;;;;;-1.19;100.00;101245.00;714813;1177;114960;-74
2021/12/12 11:12:43;;;;;;;177.53;60.23;;;;;;;-0.85;100.00;101234.71;714945;1200;115498;-74
2021/12/12 11:28:01;;;;;;;160.03;52.35;;;;;;;-0.61;100.00;101237.55;714900;1199;114598;-74
2021/12/12 11:43:25;;;;;;;185.83;61.88;;;;;;;-0.62;100.00;101242.74;714711;1200;114900;-74
2021/12/12 11:58:45;;;;;;;162.88;55.38;;;;;;;-0.40;100.00;101227.56;715214;1200;114756;-74
2021/12/12 12:14:07;;;;;;;169.73;50.43;;;;;;;-0.31;100.00;101216.98;714574;1200;115818;-73
2021/12/12 12:29:22;;;;;;;186.75;60.45;;;;;;;-0.19;100.00;101206.31;714826;1180;114714;-74
2021/12/12 12:44:30;;;;;;;171.10;47.58;;;;;;;-0.19;100.00;101203.73;714918;1178;114898;-74
2021/12/12 12:59:55;;;;;;;171.50;56.68;;;;;;;-0.17;100.00;101201.14;714740;1203;115045;-77
2021/12/12 13:15:13;;;;;;;155.73;50.07;;;;;;;-0.21;100.00;101214.98;714664;1203;113998;-74
2021/12/12 13:30:29;;;;;;;189.28;56.03;;;;;;;-0.07;100.00;101230.09;714685;1200;115272;-76
2021/12/12 13:45:48;;;;;;;105.13;34.20;;;;;;;-0.09;100.00;101232.72;714793;1177;114947;-75
2021/12/12 14:00:59;;;;;;;137.45;40.43;;;;;;;-0.01;100.00;101235.08;714320;1202;114544;-75
2021/12/12 14:16:11;;;;;;;210.93;68.47;;;;;;;0.14;100.00;101239.77;714629;1200;114467;-76
2021/12/12 14:31:17;;;;;;;127.18;39.45;;;;;;;0.09;100.00;101239.09;715022;1200;114710;-75
2021/12/12 14:46:26;;;;;;;142.55;42.75;;;;;;;0.05;100.00;101246.95;714763;1200;114208;-75
2021/12/12 15:01:36;;;;;;;132.88;41.40;;;;;;;0.03;100.00;101257.31;714846;1200;115353;-74
2021/12/12 15:16:41;;;;;;;120.43;35.83;;;;;;;0.10;100.00;101245.92;714803;1202;114399;-75
2021/12/12 15:31:48;;;;;;;95.85;32.85;;;;;;;0.10;100.00;101238.17;714701;1202;114534;-75
2021/12/12 15:46:54;;;;;;;92.50;30.20;;;;;;;-0.02;100.00;101248.86;714861;1202;115711;-74
2021/12/12 16:02:02;;;;;;;;;;;;;;;0.10;100.00;101263.98;714851;1180;114434;-74
2021/12/12 16:17:11;;;;;;;101.73;29.80;;;;;;;0.24;100.00;101260.15;714753;1177;101016;-70
2021/12/12 16:32:15;;;;;;;94.75;29.03;;;;;;;0.16;100.00;101258.66;714655;1176;114787;-75
2021/12/12 16:47:24;;;;;;;99.97;30.03;;;;;;;0.15;100.00;101266.45;714931;1178;114813;-73
2021/12/12 17:02:31;;;;;;;110.88;29.85;;;;;;;0.11;100.00;101245.03;714953;1177;114248;-74
2021/12/12 17:17:38;;;;;;;117.63;30.63;;;;;;;0.24;100.00;101235.20;715004;1202;114765;-74
2021/12/12 17:33:07;;;;;;;137.95;39.65;;;;;;;0.43;100.00;101250.97;715246;1176;114441;-74
2021/12/12 17:49:06;;;;;;;200.08;61.78;;;;;;;0.43;100.00;101257.88;715098;1200;114770;-74
2021/12/12 18:04:16;;;;;;;143.88;43.90;;;;;;;0.42;100.00;101275.13;715193;1202;115233;-74
2021/12/12 18:19:56;;;;;;;217.43;58.68;;;;;;;0.53;100.00;101263.59;714902;1176;114389;-74
2021/12/12 18:35:21;;;;;;;283.60;97.15;;;;;;;0.62;100.00;101277.09;715334;1177;114736;-74
2021/12/12 18:50:33;;;;;;;235.25;74.88;;;;;;;0.64;100.00;101283.04;715005;1180;115741;-75
2021/12/12 19:05:38;;;;;;;241.77;76.70;;;;;;;0.77;100.00;101301.59;714910;1204;115843;-75
2021/12/12 19:20:46;;;;;;;196.83;66.25;;;;;;;0.78;100.00;101281.77;714831;1200;116331;-75
2021/12/12 19:35:51;;;;;;;178.43;51.03;;;;;;;0.86;100.00;101284.11;715323;1177;114450;-75
2021/12/12 19:50:55;;;;;;;161.83;44.40;;;;;;;0.71;100.00;101273.36;721065;1200;114496;-73
2021/12/12 20:06:08;;;;;;;171.80;50.60;;;;;;;0.75;100.00;101264.66;715631;1200;115751;-74
2021/12/12 20:21:44;;;;;;;98.15;25.98;;;;;;;0.68;100.00;101273.47;715286;1177;115066;-74
2021/12/12 20:36:52;;;;;;;130.20;35.53;;;;;;;0.68;100.00;101255.39;714008;1202;114525;-75
2021/12/12 20:52:02;;;;;;;133.33;37.07;;;;;;;0.71;100.00;101264.78;714182;1201;114778;-75
2021/12/12 21:07:12;;;;;;;221.80;52.70;;;;;;;0.78;100.00;101280.05;714266;1202;115348;-76
2021/12/12 21:22:18;;;;;;;150.25;41.85;;;;;;;0.78;100.00;101279.18;714715;1202;115754;-75
2021/12/12 21:37:27;;;;;;;232.78;52.75;;;;;;;0.87;100.00;101267.72;714903;1177;114687;-77
2021/12/12 21:52:46;;;;;;;179.60;43.95;;;;;;;0.94;100.00;101279.56;713977;1204;115978;-75
2021/12/12 22:08:03;;;;;;;162.05;40.05;;;;;;;0.92;100.00;101276.17;714081;1206;114425;-75
2021/12/12 22:23:20;;;;;;;153.27;42.83;;;;;;;0.88;100.00;101272.84;715214;1174;114657;-76
2021/12/12 22:38:30;;;;;;;154.33;44.95;;;;;;;0.73;100.00;101258.67;714250;1202;115552;-75
2021/12/12 22:53:40;;;;;;;154.40;41.40;;;;;;;0.64;100.00;101251.22;714139;1177;114241;-75
2021/12/12 23:08:43;;;;;;;145.75;37.80;;;;;;;0.60;100.00;101262.53;714094;1202;114663;-74
2021/12/12 23:24:08;;;;;;;158.27;40.03;;;;;;;0.68;100.00;101265.72;713936;1199;115164;-74
2021/12/12 23:39:15;;;;;;;160.55;39.65;;;;;;;0.66;100.00;101267.52;713822;1200;114368;-75
2021/12/12 23:54:23;;;;;;;161.63;39.03;;;;;;;0.76;100.00;101270.65;714068;1200;115525;-74
